Time;durP1;ratioP1;P1;durP2;ratioP2;P2;SDS_P1;SDS_P2;PMS_P1;PMS_P2;Temp;Humidity;BMP_temperature;BMP_pressure;BME280_temperature;BME280_humidity;BME280_pressure;Samples;Min_cycle;Max_cycle;Signal;HPM_P1;HPM_P2
2023/07/25 00:00:23;;;;;;;10.20;5.60;;;16.90;1.00;;;;;;4979194;28;20211;-88
2023/07/25 00:02:49;;;;;;;8.40;5.40;;;17.00;62.10;;;;;;4976952;28;20188;-88
2023/07/25 00:05:15;;;;;;;7.47;5.10;;;16.90;1.00;;;;;;4978404;28;20662;-87
2023/07/25 00:07:40;;;;;;;8.00;4.53;;;16.70;1.00;;;;;;4993461;28;20191;-88
2023/07/25 00:10:07;;;;;;;11.02;5.10;;;16.60;1.00;;;;;;4974093;28;20212;-88
2023/07/25 00:12:34;;;;;;;6.38;4.68;;;16.50;1.00;;;;;;4991432;28;20203;-88
2023/07/25 00:15:00;;;;;;;6.38;4.65;;;16.70;96.30;;;;;;4973955;28;20177;-88
2023/07/25 00:17:26;;;;;;;8.27;4.50;;;16.40;99.90;;;;;;4977745;28;20191;-88
2023/07/25 00:19:51;;;;;;;6.38;4.70;;;16.60;1.00;;;;;;4991931;28;20308;-87
2023/07/25 00:22:17;;;;;;;7.38;5.13;;;16.50;1.00;;;;;;4978490;28;20984;-88
2023/07/25 00:24:42;;;;;;;9.35;5.68;;;16.40;99.90;;;;;;4978492;28;20203;-87
2023/07/25 00:27:08;;;;;;;8.55;5.10;;;16.30;1.00;;;;;;4980497;28;20246;-89
2023/07/25 00:29:33;;;;;;;7.40;4.38;;;16.30;1.00;;;;;;4970589;28;20202;-89
2023/07/25 00:31:59;;;;;;;9.52;4.55;;;16.30;99.90;;;;;;4976934;28;20642;-88
2023/07/25 00:34:24;;;;;;;4.57;3.70;;;16.20;99.90;;;;;;4977491;28;20267;-88
2023/07/25 00:36:51;;;;;;;6.80;4.82;;;16.10;1.00;;;;;;4977887;28;20196;-88
2023/07/25 00:39:17;;;;;;;8.57;5.15;;;16.10;1.00;;;;;;4975312;28;20200;-87
2023/07/25 00:41:42;;;;;;;5.75;3.90;;;16.10;1.00;;;;;;4977922;28;20556;-88
2023/07/25 00:44:08;;;;;;;9.18;4.72;;;16.20;1.00;;;;;;4979040;28;20195;-89
2023/07/25 00:46:34;;;;;;;8.88;4.63;;;16.40;1.00;;;;;;4974734;28;20811;-89
2023/07/25 00:49:00;;;;;;;10.25;4.30;;;16.00;1.00;;;;;;4967873;28;20793;-88
2023/07/25 00:51:27;;;;;;;9.73;5.13;;;16.00;99.90;;;;;;4968340;28;20283;-88
2023/07/25 00:53:52;;;;;;;8.57;4.90;;;16.00;1.00;;;;;;4972497;28;20191;-88
2023/07/25 00:56:18;;;;;;;6.30;4.10;;;15.90;99.90;;;;;;4977007;28;20180;-89
2023/07/25 00:58:45;;;;;;;6.63;4.10;;;15.90;99.90;;;;;;4985267;28;20224;-89
2023/07/25 01:01:11;;;;;;;7.10;4.05;;;15.60;99.90;;;;;;4983777;28;20231;-88
2023/07/25 01:03:38;;;;;;;7.50;4.03;;;15.70;99.90;;;;;;4977165;28;20218;-88
2023/07/25 01:06:05;;;;;;;7.03;4.20;;;15.60;1.00;;;;;;4976115;28;20911;-89
2023/07/25 01:08:31;;;;;;;14.15;3.58;;;15.60;1.00;;;;;;4993726;28;20216;-88
2023/07/25 01:10:56;;;;;;;9.23;3.90;;;15.50;82.00;;;;;;4976813;28;20206;-89
2023/07/25 01:13:23;;;;;;;6.65;3.40;;;15.60;99.90;;;;;;4976870;28;20204;-87
2023/07/25 01:15:53;;;;;;;6.20;3.28;;;15.60;1.00;;;;;;4978305;28;20272;-88
2023/07/25 01:18:19;;;;;;;6.10;3.15;;;15.70;1.00;;;;;;4989311;28;20180;-87
2023/07/25 01:20:47;;;;;;;6.05;3.13;;;15.60;1.00;;;;;;4976451;28;20184;-87
2023/07/25 01:23:13;;;;;;;5.88;2.58;;;15.60;1.00;;;;;;4977578;28;20281;-88
2023/07/25 01:25:39;;;;;;;6.72;2.65;;;15.60;99.90;;;;;;4977058;28;20199;-88
2023/07/25 01:28:05;;;;;;;5.07;2.17;;;15.60;1.00;;;;;;4976671;28;20199;-88
2023/07/25 01:30:30;;;;;;;6.00;2.67;;;15.30;1.00;;;;;;4973633;28;20203;-88
2023/07/25 01:32:56;;;;;;;4.65;2.50;;;15.60;99.90;;;;;;4975275;28;20258;-89
2023/07/25 01:35:22;;;;;;;9.15;2.67;;;15.60;52.60;;;;;;4977610;28;20184;-88
2023/07/25 01:37:48;;;;;;;4.13;2.25;;;15.70;99.90;;;;;;4974597;28;20207;-88
2023/07/25 01:40:14;;;;;;;8.02;2.60;;;15.60;1.00;;;;;;4976313;28;20208;-88
2023/07/25 01:42:40;;;;;;;5.45;2.17;;;15.80;1.00;;;;;;4977751;28;20188;-88
2023/07/25 01:45:06;;;;;;;4.25;2.30;;;15.70;99.90;;;;;;4977276;28;20255;-88
2023/07/25 01:47:31;;;;;;;5.40;2.65;;;15.70;99.90;;;;;;4978405;28;20199;-89
2023/07/25 01:49:57;;;;;;;6.85;2.63;;;15.70;1.00;;;;;;4977685;28;20212;-88
2023/07/25 01:52:23;;;;;;;7.53;2.55;;;15.60;99.90;;;;;;4975976;28;20208;-87
2023/07/25 01:54:49;;;;;;;6.95;2.30;;;15.80;1.00;;;;;;4972374;28;20188;-89
2023/07/25 01:57:15;;;;;;;10.07;2.55;;;15.50;1.00;;;;;;4971402;28;20181;-89
2023/07/25 01:59:41;;;;;;;4.70;2.40;;;15.60;1.00;;;;;;4983100;28;20224;-88
2023/07/25 02:02:07;;;;;;;5.03;2.30;;;15.60;1.00;;;;;;4978142;28;20192;-88
2023/07/25 02:04:33;;;;;;;5.80;2.70;;;15.60;99.90;;;;;;4976607;28;20184;-88
2023/07/25 02:06:59;;;;;;;9.70;2.33;;;15.60;99.90;;;;;;4977827;28;20191;-87
2023/07/25 02:09:25;;;;;;;6.60;2.75;;;15.60;99.90;;;;;;4976986;28;20259;-88
2023/07/25 02:11:50;;;;;;;5.13;2.35;;;15.60;1.00;;;;;;4976724;28;20207;-88
2023/07/25 02:14:16;;;;;;;12.48;2.70;;;15.60;1.00;;;;;;4976215;28;20191;-87
2023/07/25 02:16:42;;;;;;;5.30;2.53;;;15.60;1.00;;;;;;4976682;28;20188;-89
2023/07/25 02:19:10;;;;;;;6.47;2.60;;;15.60;99.90;;;;;;4977177;28;20208;-87
2023/07/25 02:21:35;;;;;;;5.18;2.60;;;15.60;1.00;;;;;;4977361;28;20254;-89
2023/07/25 02:24:01;;;;;;;8.02;2.50;;;15.70;1.00;;;;;;4976079;28;20900;-89
2023/07/25 02:26:27;;;;;;;6.90;2.80;;;15.60;9.80;;;;;;4972664;28;20192;-89
2023/07/25 02:28:53;;;;;;;6.20;2.30;;;15.60;1.00;;;;;;4977070;28;20204;-87
2023/07/25 02:31:18;;;;;;;6.15;2.67;;;15.60;99.90;;;;;;4979447;28;20184;-89
2023/07/25 02:33:44;;;;;;;6.50;2.60;;;15.60;99.90;;;;;;4968163;28;20227;-89
2023/07/25 02:36:09;;;;;;;5.90;2.60;;;15.60;99.90;;;;;;4977886;28;20197;-89
2023/07/25 02:38:36;;;;;;;6.72;2.45;;;15.60;99.90;;;;;;4976271;28;20291;-89
2023/07/25 02:41:02;;;;;;;4.63;2.30;;;15.50;99.90;;;;;;4980609;28;20586;-89
2023/07/25 02:43:27;;;;;;;8.93;2.60;;;15.40;1.00;;;;;;4981621;28;20188;-89
2023/07/25 02:45:53;;;;;;;6.75;2.28;;;15.50;99.90;;;;;;4995949;28;20187;-89
2023/07/25 02:48:19;;;;;;;8.02;2.85;;;15.40;99.90;;;;;;4979792;28;20562;-88
2023/07/25 02:50:44;;;;;;;8.05;2.67;;;15.50;99.90;;;;;;4978719;28;20188;-91
2023/07/25 02:53:10;;;;;;;5.47;2.20;;;15.40;99.90;;;;;;4980756;28;20290;-90
2023/07/25 02:55:37;;;;;;;4.53;2.60;;;15.40;99.90;;;;;;4972573;28;20272;-88
2023/07/25 02:58:02;;;;;;;5.25;2.65;;;15.40;99.90;;;;;;4975470;28;20223;-87
2023/07/25 03:00:28;;;;;;;6.57;2.42;;;15.20;99.90;;;;;;4976953;28;20797;-88
2023/07/25 03:02:54;;;;;;;9.30;2.70;;;15.30;1.00;;;;;;4979901;28;20212;-89
2023/07/25 03:05:19;;;;;;;5.22;2.30;;;15.40;99.90;;;;;;4998979;28;20538;-88
2023/07/25 03:07:45;;;;;;;8.95;2.88;;;15.30;99.90;;;;;;4979785;28;20184;-88
2023/07/25 03:10:11;;;;;;;10.95;2.80;;;15.30;99.90;;;;;;4995683;28;20219;-88
2023/07/25 03:12:37;;;;;;;8.38;3.05;;;15.40;99.90;;;;;;4972314;28;20295;-88
2023/07/25 03:15:03;;;;;;;7.85;2.80;;;15.30;99.90;;;;;;4971066;28;20176;-87
2023/07/25 03:17:30;;;;;;;4.85;2.05;;;15.40;43.50;;;;;;4992159;28;20199;-89
2023/07/25 03:19:56;;;;;;;8.07;2.10;;;15.40;99.90;;;;;;4980922;28;20200;-89
2023/07/25 03:22:22;;;;;;;5.78;2.35;;;15.40;14.70;;;;;;4974065;28;20203;-89
2023/07/25 03:24:48;;;;;;;6.05;2.25;;;15.30;1.00;;;;;;4979364;28;20242;-90
2023/07/25 03:27:15;;;;;;;6.80;2.58;;;15.30;99.90;;;;;;4981123;28;20184;-89
2023/07/25 03:29:41;;;;;;;5.80;2.55;;;15.30;99.90;;;;;;4974706;28;20298;-89
2023/07/25 03:32:07;;;;;;;12.00;3.78;;;15.20;94.60;;;;;;4969037;28;20295;-89
2023/07/25 03:34:32;;;;;;;5.85;2.88;;;15.20;1.00;;;;;;4977558;28;20199;-89
2023/07/25 03:36:58;;;;;;;6.03;2.50;;;15.20;99.90;;;;;;4970766;28;20264;-89
2023/07/25 03:39:23;;;;;;;4.95;1.90;;;15.40;99.90;;;;;;4981498;28;20208;-88
2023/07/25 03:41:49;;;;;;;6.85;2.30;;;15.20;1.00;;;;;;4980321;28;20187;-88
2023/07/25 03:44:18;;;;;;;6.20;2.28;;;15.10;99.90;;;;;;4981260;28;20627;-88
2023/07/25 03:46:44;;;;;;;5.72;2.40;;;14.90;11.70;;;;;;4995461;28;20190;-88
2023/07/25 03:49:11;;;;;;;7.72;2.70;;;15.10;41.70;;;;;;4998600;28;20207;-88
2023/07/25 03:51:37;;;;;;;6.10;2.28;;;15.00;1.00;;;;;;4974682;28;20659;-88
2023/07/25 03:54:03;;;;;;;6.05;2.65;;;15.10;99.90;;;;;;4978262;28;20195;-88
2023/07/25 03:56:29;;;;;;;5.97;2.45;;;15.10;99.90;;;;;;4997666;28;20188;-89
2023/07/25 03:58:55;;;;;;;9.93;2.83;;;15.10;99.90;;;;;;4980161;28;20219;-89
2023/07/25 04:01:20;;;;;;;7.20;2.63;;;15.50;99.90;;;;;;4980418;28;20188;-89
2023/07/25 04:03:46;;;;;;;8.77;2.63;;;15.60;29.50;;;;;;4980484;28;20202;-89
2023/07/25 04:06:11;;;;;;;6.38;2.50;;;15.80;1.00;;;;;;4976679;28;20184;-88
2023/07/25 04:08:37;;;;;;;5.50;2.70;;;15.70;1.00;;;;;;4998214;28;20204;-88
2023/07/25 04:11:02;;;;;;;4.97;2.13;;;15.50;1.00;;;;;;4973582;28;20793;-88
2023/07/25 04:13:28;;;;;;;5.03;2.22;;;15.50;99.90;;;;;;4978545;28;20212;-89
2023/07/25 04:15:54;;;;;;;7.70;2.58;;;15.50;99.90;;;;;;4980680;28;20192;-87
2023/07/25 04:18:19;;;;;;;6.05;2.55;;;15.40;99.90;;;;;;4991783;28;20175;-88
2023/07/25 04:20:45;;;;;;;7.45;2.83;;;15.70;99.90;;;;;;4979303;28;20267;-88
2023/07/25 04:23:11;;;;;;;5.53;2.35;;;15.70;99.90;;;;;;4999481;28;20195;-89
2023/07/25 04:25:36;;;;;;;9.00;2.72;;;15.80;99.90;;;;;;5002840;28;20263;-88
2023/07/25 04:28:02;;;;;;;8.00;2.72;;;15.80;59.20;;;;;;4975879;28;20206;-89
2023/07/25 04:30:28;;;;;;;5.15;2.30;;;15.90;1.00;;;;;;4980338;28;20208;-89
2023/07/25 04:32:53;;;;;;;4.88;1.92;;;16.30;1.00;;;;;;4980275;28;20267;-88
2023/07/25 04:35:19;;;;;;;7.10;2.30;;;16.40;45.60;;;;;;4980482;28;20203;-87
2023/07/25 04:37:44;;;;;;;6.97;2.30;;;16.20;1.00;;;;;;4978318;28;20274;-88
2023/07/25 04:40:10;;;;;;;6.53;2.10;;;16.00;1.00;;;;;;4980326;28;20339;-88
2023/07/25 04:42:36;;;;;;;5.80;1.88;;;16.50;1.00;;;;;;4980066;28;20188;-88
2023/07/25 04:45:03;;;;;;;5.88;1.80;;;16.60;1.00;;;;;;4979537;28;20184;-89
2023/07/25 04:47:28;;;;;;;7.50;2.20;;;16.50;1.00;;;;;;4978717;28;20196;-90
2023/07/25 04:49:54;;;;;;;5.97;2.00;;;17.00;1.00;;;;;;4979648;28;20196;-88
2023/07/25 04:52:20;;;;;;;6.72;2.30;;;16.80;1.00;;;;;;4982394;28;20211;-89
2023/07/25 04:54:45;;;;;;;7.50;2.17;;;16.50;1.00;;;;;;4976268;28;20202;-87
2023/07/25 04:57:11;;;;;;;5.40;2.10;;;16.90;99.90;;;;;;4977999;28;20850;-87
2023/07/25 04:59:36;;;;;;;5.20;1.98;;;17.40;99.90;;;;;;4977810;28;20232;-86
2023/07/25 05:02:02;;;;;;;6.25;2.08;;;18.20;99.90;;;;;;4978413;28;20554;-86
2023/07/25 05:04:28;;;;;;;4.13;2.08;;;18.70;99.90;;;;;;4974356;28;20196;-89
2023/07/25 05:06:54;;;;;;;8.80;1.80;;;19.40;99.90;;;;;;4973015;28;20184;-88
2023/07/25 05:09:20;;;;;;;4.00;2.00;;;20.40;99.90;;;;;;4994189;28;20213;-88
2023/07/25 05:11:51;;;;;;;7.50;2.40;;;20.70;99.90;;;;;;4977106;28;20184;-89
2023/07/25 05:14:17;;;;;;;4.35;1.60;;;21.00;99.90;;;;;;4976904;28;20237;-88
2023/07/25 05:16:42;;;;;;;7.07;1.98;;;21.20;99.90;;;;;;4970604;28;20189;-87
2023/07/25 05:19:08;;;;;;;5.97;1.80;;;21.20;99.90;;;;;;4976217;28;20274;-87
2023/07/25 05:21:34;;;;;;;4.63;2.00;;;21.00;99.90;;;;;;4977140;28;20561;-88
2023/07/25 05:23:59;;;;;;;8.65;2.33;;;20.90;99.90;;;;;;4977817;28;20290;-88
2023/07/25 05:26:25;;;;;;;6.22;1.90;;;20.40;99.90;;;;;;4978554;28;20609;-88
2023/07/25 05:28:50;;;;;;;5.40;1.70;;;19.50;99.90;;;;;;4987643;28;20219;-86
2023/07/25 05:31:16;;;;;;;4.15;1.70;;;18.80;99.90;;;;;;4977540;28;20203;-88
2023/07/25 05:33:42;;;;;;;5.65;1.90;;;18.60;99.90;;;;;;4990724;28;20314;-87
2023/07/25 05:36:07;;;;;;;4.13;1.98;;;18.50;99.90;;;;;;4975445;28;20559;-87
2023/07/25 05:38:33;;;;;;;8.10;2.33;;;18.40;99.90;;;;;;4974812;28;20258;-87
2023/07/25 05:40:58;;;;;;;7.35;1.98;;;18.30;99.90;;;;;;4978383;28;20551;-87
2023/07/25 05:43:24;;;;;;;11.02;2.47;;;18.10;99.90;;;;;;4995325;28;20216;-87
2023/07/25 05:45:50;;;;;;;8.32;2.38;;;17.90;99.90;;;;;;4973884;28;20196;-87
2023/07/25 05:48:16;;;;;;;6.63;2.70;;;17.60;99.90;;;;;;4978776;28;20585;-87
2023/07/25 05:50:41;;;;;;;4.65;2.40;;;17.60;99.90;;;;;;4973589;28;20188;-87
2023/07/25 05:53:07;;;;;;;7.88;2.90;;;17.40;99.90;;;;;;4980090;28;20229;-88
2023/07/25 05:55:33;;;;;;;8.77;3.20;;;17.70;99.90;;;;;;4974000;28;20266;-87
2023/07/25 05:57:59;;;;;;;5.88;3.25;;;17.20;99.90;;;;;;4976632;28;20568;-88
2023/07/25 06:00:25;;;;;;;8.15;3.00;;;17.20;99.90;;;;;;4977336;28;20212;-88
2023/07/25 06:02:51;;;;;;;7.72;3.20;;;17.20;99.90;;;;;;4995303;28;20266;-89
2023/07/25 06:05:17;;;;;;;6.97;4.43;;;17.40;99.90;;;;;;4979952;28;20188;-87
2023/07/25 06:07:42;;;;;;;8.80;4.45;;;17.60;99.90;;;;;;4978906;28;20199;-89
2023/07/25 06:10:08;;;;;;;10.52;5.13;;;17.60;99.90;;;;;;4988481;28;20207;-88
2023/07/25 06:12:34;;;;;;;9.70;4.97;;;17.60;99.90;;;;;;4997372;28;20422;-89
2023/07/25 06:15:00;;;;;;;11.85;4.40;;;18.60;99.90;;;;;;4998227;28;20809;-89
2023/07/25 06:17:25;;;;;;;8.55;4.80;;;19.90;99.90;;;;;;4999487;28;20210;-89
2023/07/25 06:19:51;;;;;;;6.93;4.15;;;20.00;99.90;;;;;;4997241;28;20213;-90
2023/07/25 06:22:17;;;;;;;8.60;3.63;;;20.30;99.90;;;;;;4981021;28;20650;-90
2023/07/25 06:24:42;;;;;;;6.03;3.28;;;20.80;99.90;;;;;;4998382;28;20246;-88
2023/07/25 06:27:08;;;;;;;6.97;3.38;;;21.40;99.90;;;;;;4987251;28;20191;-88
2023/07/25 06:29:33;;;;;;;5.25;2.97;;;20.80;99.90;;;;;;4999976;28;20274;-89
2023/07/25 06:31:59;;;;;;;5.70;3.10;;;20.40;99.90;;;;;;5016900;28;20195;-88
2023/07/25 06:34:25;;;;;;;7.85;3.30;;;20.00;99.90;;;;;;4979026;28;20176;-88
2023/07/25 06:36:54;;;;;;;5.78;2.85;;;19.80;99.90;;;;;;4990856;28;20191;-89
2023/07/25 06:39:19;;;;;;;6.88;3.03;;;19.80;99.90;;;;;;4996969;28;20203;-89
2023/07/25 06:41:45;;;;;;;9.70;3.17;;;19.90;99.90;;;;;;4992734;28;20181;-89
2023/07/25 06:44:10;;;;;;;4.75;2.85;;;19.90;99.90;;;;;;4996735;28;20184;-89
2023/07/25 06:46:36;;;;;;;10.45;3.00;;;19.60;99.90;;;;;;4997153;28;20196;-89
2023/07/25 06:49:01;;;;;;;6.85;3.55;;;19.40;99.90;;;;;;4981468;28;20199;-89
2023/07/25 06:51:27;;;;;;;8.57;3.60;;;19.20;99.90;;;;;;4999358;28;20191;-88
2023/07/25 06:53:53;;;;;;;6.63;3.10;;;19.00;99.90;;;;;;5017540;28;20202;-88
2023/07/25 06:56:18;;;;;;;7.82;3.60;;;18.80;99.90;;;;;;5000025;28;20642;-88
2023/07/25 06:58:44;;;;;;;6.30;3.00;;;18.80;99.90;;;;;;4994817;28;20234;-87
2023/07/25 07:01:10;;;;;;;6.15;3.30;;;19.00;99.90;;;;;;4977218;28;20766;-88
2023/07/25 07:03:36;;;;;;;6.97;3.15;;;18.90;99.90;;;;;;4972654;28;20562;-86
2023/07/25 07:06:02;;;;;;;6.57;3.45;;;19.00;99.90;;;;;;4977372;28;20685;-86
2023/07/25 07:08:27;;;;;;;5.57;3.03;;;18.90;99.90;;;;;;4993750;28;20193;-86
2023/07/25 07:10:54;;;;;;;4.32;3.38;;;18.80;99.90;;;;;;4997338;28;20188;-86
2023/07/25 07:13:21;;;;;;;7.93;3.60;;;18.80;99.90;;;;;;4973672;28;20362;-87
2023/07/25 07:15:47;;;;;;;6.18;3.33;;;18.80;99.90;;;;;;4979172;28;20184;-86
2023/07/25 07:18:12;;;;;;;5.07;3.22;;;18.60;99.90;;;;;;4977800;28;20184;-87
2023/07/25 07:20:39;;;;;;;4.90;3.20;;;18.60;99.90;;;;;;4980198;28;20180;-87
2023/07/25 07:23:04;;;;;;;6.65;3.35;;;18.60;99.90;;;;;;4980639;28;21039;-86
2023/07/25 07:25:30;;;;;;;7.07;3.20;;;18.60;99.90;;;;;;4980023;28;20185;-88
2023/07/25 07:27:55;;;;;;;8.93;3.13;;;18.70;99.90;;;;;;4990353;28;20559;-87
2023/07/25 07:30:22;;;;;;;5.10;3.13;;;18.40;99.90;;;;;;4979922;28;20889;-87
2023/07/25 07:32:48;;;;;;;11.18;3.55;;;18.30;99.90;;;;;;4978135;28;20212;-87
2023/07/25 07:35:13;;;;;;;5.40;3.65;;;18.20;99.90;;;;;;4978427;28;20194;-87
2023/07/25 07:37:39;;;;;;;7.60;3.35;;;18.00;99.90;;;;;;4978975;28;20188;-86
2023/07/25 07:40:05;;;;;;;6.13;3.30;;;18.00;99.90;;;;;;4996220;28;20258;-86
2023/07/25 07:42:31;;;;;;;5.28;3.35;;;17.90;99.90;;;;;;4974645;28;20187;-86
2023/07/25 07:44:56;;;;;;;5.45;2.90;;;17.80;96.00;;;;;;4988405;28;20193;-88
2023/07/25 07:50:39;;;;;;;7.68;3.50;;;17.90;99.90;;;;;;4993700;23;20239;-75
2023/07/25 07:53:05;;;;;;;6.55;3.15;;;18.10;99.90;;;;;;4969765;28;20912;-75
2023/07/25 07:55:30;;;;;;;7.45;3.00;;;18.20;99.90;;;;;;4975505;28;20269;-76
2023/07/25 07:57:56;;;;;;;6.60;3.05;;;18.40;99.90;;;;;;4999723;28;20578;-76
2023/07/25 08:00:23;;;;;;;7.47;3.50;;;18.40;99.90;;;;;;4994768;28;20330;-75
2023/07/25 08:02:50;;;;;;;5.70;2.50;;;18.70;99.90;;;;;;4997412;28;20211;-76
2023/07/25 08:05:16;;;;;;;5.30;2.67;;;19.00;99.90;;;;;;4997900;28;20234;-75
2023/07/25 08:07:41;;;;;;;4.00;2.08;;;19.20;99.90;;;;;;4996382;28;20201;-75
2023/07/25 08:10:07;;;;;;;5.93;2.20;;;18.70;99.90;;;;;;4999237;28;20187;-75
2023/07/25 08:12:34;;;;;;;6.82;2.72;;;18.50;99.90;;;;;;4996845;28;20235;-73
2023/07/25 08:14:59;;;;;;;5.43;2.38;;;19.20;99.90;;;;;;4994035;28;20239;-74
2023/07/25 08:17:25;;;;;;;4.80;2.40;;;18.40;99.90;;;;;;4994013;28;20216;-75
2023/07/25 08:19:51;;;;;;;4.05;2.45;;;18.50;99.90;;;;;;4997986;28;20183;-75
2023/07/25 08:22:17;;;;;;;8.23;2.55;;;18.50;99.90;;;;;;4993440;28;20593;-74
2023/07/25 08:24:43;;;;;;;6.22;2.63;;;18.70;99.90;;;;;;4994647;28;20707;-75
2023/07/25 08:27:09;;;;;;;6.47;2.45;;;19.10;99.90;;;;;;4996166;28;20235;-75
2023/07/25 08:29:42;;;;;;;4.65;2.05;;;19.40;99.90;;;;;;4996304;28;20188;-75
2023/07/25 08:32:11;;;;;;;3.65;1.75;;;19.60;99.90;;;;;;4996066;28;20748;-75
2023/07/25 08:34:38;;;;;;;3.90;1.70;;;19.60;99.90;;;;;;4991696;28;20226;-77
2023/07/25 08:37:05;;;;;;;4.40;1.70;;;19.40;99.90;;;;;;4991094;28;20191;-74
2023/07/25 08:39:31;;;;;;;3.88;1.90;;;19.60;99.90;;;;;;4993556;28;20195;-76
2023/07/25 08:41:58;;;;;;;4.80;1.67;;;19.70;99.90;;;;;;4996372;28;20597;-76
2023/07/25 08:44:25;;;;;;;5.13;1.70;;;19.70;99.90;;;;;;4993108;28;20183;-75
2023/07/25 08:46:53;;;;;;;5.22;1.80;;;19.70;99.90;;;;;;4992994;28;20522;-76
2023/07/25 08:49:24;;;;;;;3.30;1.63;;;19.70;99.90;;;;;;4989707;28;20184;-74
2023/07/25 08:51:54;;;;;;;3.33;1.55;;;19.80;99.90;;;;;;4992855;28;20172;-75
2023/07/25 08:56:56;;;;;;;4.07;1.77;;;19.70;99.90;;;;;;5859561;23;20243;-76
2023/07/25 08:59:22;;;;;;;4.85;1.80;;;19.50;99.90;;;;;;4993504;28;20651;-75
2023/07/25 09:01:48;;;;;;;4.05;1.95;;;19.50;99.90;;;;;;4990505;28;20188;-75
2023/07/25 09:04:14;;;;;;;2.80;1.58;;;19.60;99.90;;;;;;4990117;28;20700;-75
2023/07/25 09:06:40;;;;;;;7.28;1.80;;;19.80;99.90;;;;;;4995037;28;20293;-75
2023/07/25 09:09:07;;;;;;;5.07;1.80;;;19.80;99.90;;;;;;4997256;28;20278;-76
2023/07/25 09:11:35;;;;;;;3.90;1.60;;;19.90;99.90;;;;;;4992840;28;20411;-77
2023/07/25 09:14:01;;;;;;;4.95;1.50;;;19.70;99.90;;;;;;4992832;28;20211;-75
2023/07/25 09:16:27;;;;;;;6.00;1.65;;;19.70;99.90;;;;;;4995124;28;20223;-75
2023/07/25 09:18:53;;;;;;;9.73;2.50;;;;;;;;;;4975418;28;20450;-77
2023/07/25 09:21:19;;;;;;;6.35;1.83;;;19.30;99.90;;;;;;5000060;28;20188;-77
2023/07/25 09:23:55;;;;;;;2.65;1.45;;;19.40;99.90;;;;;;4997910;28;20196;-78
2023/07/25 09:26:23;;;;;;;2.50;1.20;;;19.70;99.90;;;;;;4996180;28;20294;-78
2023/07/25 09:28:51;;;;;;;4.00;1.20;;;19.90;99.90;;;;;;4995009;28;20187;-76
2023/07/25 09:31:18;;;;;;;2.55;1.35;;;20.10;99.90;;;;;;4978987;28;20180;-76
2023/07/25 09:33:47;;;;;;;4.78;1.33;;;20.10;99.90;;;;;;4992416;28;20200;-74
2023/07/25 09:36:13;;;;;;;5.47;1.42;;;20.00;99.90;;;;;;4993088;28;20204;-75
2023/07/25 09:38:54;;;;;;;4.00;1.55;;;19.90;99.90;;;;;;4995723;28;20185;-75
2023/07/25 09:41:22;;;;;;;3.47;1.48;;;19.80;99.90;;;;;;4975952;28;20256;-78
2023/07/25 09:43:49;;;;;;;2.80;1.38;;;19.80;99.90;;;;;;4993477;28;20183;-75
2023/07/25 09:46:15;;;;;;;2.72;1.30;;;19.90;99.90;;;;;;4990720;28;20212;-75
2023/07/25 09:48:46;;;;;;;2.40;0.88;;;20.20;99.90;;;;;;4986931;28;20188;-76
2023/07/25 09:51:12;;;;;;;3.25;1.10;;;20.60;99.90;;;;;;4995760;28;20175;-75
2023/07/25 09:53:41;;;;;;;2.13;1.10;;;20.80;99.90;;;;;;4996009;28;20699;-74
2023/07/25 09:56:08;;;;;;;3.33;1.10;;;21.20;99.90;;;;;;4999740;28;20246;-76
2023/07/25 09:58:34;;;;;;;3.72;1.30;;;21.10;99.90;;;;;;4995209;28;20191;-76
2023/07/25 10:01:02;;;;;;;3.15;1.25;;;20.90;99.90;;;;;;4995496;28;20184;-75
2023/07/25 10:03:29;;;;;;;2.33;1.10;;;20.80;99.90;;;;;;4991856;28;20194;-74
2023/07/25 10:05:56;;;;;;;4.75;1.40;;;20.80;99.90;;;;;;4993877;28;20200;-75
2023/07/25 10:08:24;;;;;;;3.55;1.30;;;20.30;99.90;;;;;;4992458;28;20195;-74
2023/07/25 10:10:50;;;;;;;5.20;1.38;;;20.20;99.90;;;;;;4975730;28;20191;-73
2023/07/25 10:13:16;;;;;;;2.90;1.30;;;20.20;99.90;;;;;;4985564;28;20554;-76
2023/07/25 10:15:42;;;;;;;3.50;1.40;;;20.00;99.90;;;;;;4972996;28;20200;-76
2023/07/25 10:18:23;;;;;;;4.63;1.50;;;20.10;99.90;;;;;;4995783;28;20192;-75
2023/07/25 10:20:49;;;;;;;3.05;1.35;;;20.30;99.90;;;;;;4991929;28;20200;-75
2023/07/25 10:23:15;;;;;;;1.90;1.15;;;20.70;99.90;;;;;;4979682;28;20640;-75
2023/07/25 10:25:41;;;;;;;3.08;1.15;;;20.60;99.90;;;;;;4991168;28;20218;-77
2023/07/25 10:28:07;;;;;;;3.85;1.30;;;20.40;99.90;;;;;;4993699;28;20176;-74
2023/07/25 10:30:42;;;;;;;5.57;1.50;;;20.30;99.90;;;;;;4996793;28;20286;-74
2023/07/25 10:33:08;;;;;;;3.63;1.20;;;20.50;99.90;;;;;;4989368;28;20234;-75
2023/07/25 10:35:45;;;;;;;2.83;1.30;;;20.70;99.90;;;;;;4991379;28;20222;-75
2023/07/25 10:38:13;;;;;;;2.47;1.30;;;20.10;99.90;;;;;;4994074;28;20188;-76
2023/07/25 10:40:52;;;;;;;3.55;1.35;;;20.40;99.90;;;;;;4990657;28;20184;-76
2023/07/25 10:43:25;;;;;;;3.30;1.20;;;20.70;99.90;;;;;;4989726;28;20238;-75
2023/07/25 10:45:52;;;;;;;3.92;1.48;;;20.50;99.90;;;;;;4974205;28;20675;-78
2023/07/25 10:48:32;;;;;;;2.72;1.45;;;20.50;99.90;;;;;;4989922;28;20263;-76
2023/07/25 10:50:58;;;;;;;3.05;1.40;;;20.70;99.90;;;;;;4990565;28;20183;-75
2023/07/25 10:53:24;;;;;;;3.28;1.35;;;20.80;99.90;;;;;;4992984;28;20207;-74
2023/07/25 10:56:06;;;;;;;2.95;1.30;;;21.10;99.90;;;;;;4988464;28;20195;-76
2023/07/25 10:58:58;;;;;;;3.28;1.25;;;21.50;99.90;;;;;;4994482;28;21159;-75
2023/07/25 11:01:43;;;;;;;2.97;1.20;;;21.60;99.90;;;;;;4992973;28;20194;-77
2023/07/25 11:04:25;;;;;;;4.93;1.30;;;21.30;99.90;;;;;;4991000;28;20180;-77
2023/07/25 11:07:10;;;;;;;5.00;1.58;;;21.60;99.90;;;;;;4997717;28;21147;-77
2023/07/25 11:09:41;;;;;;;1.83;1.08;;;21.50;99.90;;;;;;4981728;28;20188;-78
2023/07/25 11:12:09;;;;;;;3.22;1.30;;;21.50;99.90;;;;;;5000701;28;20323;-79
2023/07/25 11:14:44;;;;;;;3.25;1.40;;;21.40;99.90;;;;;;4998038;28;20290;-77
2023/07/25 11:17:11;;;;;;;4.05;1.23;;;21.40;99.90;;;;;;4980425;28;20176;-78
2023/07/25 11:19:37;;;;;;;2.83;1.52;;;21.30;99.90;;;;;;5002236;28;20188;-77
2023/07/25 11:22:10;;;;;;;3.92;1.40;;;21.20;99.90;;;;;;4999685;28;20195;-76
2023/07/25 11:24:44;;;;;;;2.63;1.30;;;21.10;99.90;;;;;;4999291;28;20203;-76
2023/07/25 11:27:10;;;;;;;3.38;1.20;;;21.10;99.90;;;;;;4982540;28;20569;-77
2023/07/25 11:29:36;;;;;;;1.45;1.15;;;21.30;99.90;;;;;;5000083;28;20177;-78
2023/07/25 11:32:03;;;;;;;2.75;1.30;;;21.40;99.90;;;;;;5000874;28;20176;-75
2023/07/25 11:34:29;;;;;;;5.57;1.40;;;21.10;99.90;;;;;;4996219;28;20663;-76
2023/07/25 11:36:55;;;;;;;2.90;1.15;;;;;;;;;;4996924;28;20186;-78
2023/07/25 11:39:22;;;;;;;3.00;1.40;;;21.40;99.90;;;;;;4996772;28;20619;-78
2023/07/25 11:41:47;;;;;;;3.67;1.65;;;21.30;99.90;;;;;;4999659;28;20190;-77
2023/07/25 11:44:15;;;;;;;3.53;1.55;;;21.50;99.90;;;;;;5000831;28;20267;-79
2023/07/25 11:46:44;;;;;;;3.15;1.50;;;21.20;99.90;;;;;;4999374;28;20172;-79
2023/07/25 11:49:13;;;;;;;3.42;1.40;;;21.30;99.90;;;;;;4997688;28;20187;-80
2023/07/25 11:51:39;;;;;;;3.60;1.30;;;21.10;99.90;;;;;;5000385;28;20242;-78
2023/07/25 11:54:06;;;;;;;4.97;1.67;;;21.00;99.90;;;;;;4998908;28;20283;-77
2023/07/25 11:56:36;;;;;;;2.83;1.38;;;20.80;99.90;;;;;;4998607;28;20258;-78
2023/07/25 11:59:38;;;;;;;3.72;1.30;;;21.20;99.90;;;;;;4994256;28;20182;-77
2023/07/25 12:02:05;;;;;;;4.07;1.30;;;21.60;99.90;;;;;;4997368;28;20179;-76
2023/07/25 12:04:31;;;;;;;2.97;1.13;;;21.50;99.90;;;;;;4981171;28;20196;-76
2023/07/25 12:06:58;;;;;;;2.58;1.35;;;21.20;99.90;;;;;;4996303;28;20635;-76
2023/07/25 12:09:29;;;;;;;2.20;1.40;;;;;;;;;;4997542;28;20207;-76
2023/07/25 12:11:54;;;;;;;5.00;1.42;;;21.80;99.90;;;;;;4997922;28;20235;-76
2023/07/25 12:14:22;;;;;;;4.97;1.10;;;21.90;99.90;;;;;;4978537;28;20176;-77
2023/07/25 12:16:47;;;;;;;3.45;1.45;;;21.90;99.90;;;;;;4980608;28;20212;-77
2023/07/25 12:19:14;;;;;;;3.38;1.40;;;22.00;99.90;;;;;;4996265;28;20214;-76
2023/07/25 12:21:45;;;;;;;2.50;1.10;;;22.30;99.90;;;;;;4981680;28;20183;-77
2023/07/25 12:24:14;;;;;;;1.75;1.13;;;22.30;99.90;;;;;;4995223;28;20658;-77
2023/07/25 12:26:44;;;;;;;2.78;1.23;;;22.20;99.90;;;;;;4996071;28;20191;-79
2023/07/25 12:29:14;;;;;;;5.28;1.70;;;22.30;99.90;;;;;;4994505;28;20177;-77
2023/07/25 12:31:40;;;;;;;2.17;1.10;;;22.30;99.90;;;;;;4997568;28;20630;-78
2023/07/25 12:34:06;;;;;;;3.47;1.00;;;22.00;99.90;;;;;;4997228;28;20203;-78
2023/07/25 12:36:32;;;;;;;2.88;1.17;;;21.80;99.90;;;;;;4995081;28;20195;-79
2023/07/25 12:38:57;;;;;;;2.97;1.48;;;22.20;99.90;;;;;;4994607;28;20269;-80
2023/07/25 12:41:24;;;;;;;2.60;1.25;;;21.70;99.90;;;;;;4978818;28;20203;-83
2023/07/25 12:43:49;;;;;;;4.32;1.30;;;21.90;99.90;;;;;;4979168;28;20254;-78
2023/07/25 12:46:15;;;;;;;1.73;1.02;;;22.20;99.90;;;;;;4996403;28;20204;-79
2023/07/25 12:48:41;;;;;;;3.05;1.25;;;22.40;99.90;;;;;;4979764;28;20176;-79
2023/07/25 12:51:08;;;;;;;2.92;1.20;;;22.50;99.90;;;;;;4996962;28;20222;-81
2023/07/25 12:53:34;;;;;;;3.47;1.15;;;22.80;99.90;;;;;;4997322;28;20204;-80